• Join FlightAware (Why Join?)
  • Login
  • US Flag 
10:18AM EDT


 

Airport Tracker/Info


-or-


 

Live Flight TrackerFlight Track Log ✈ N612FE ✈ 22-Oct-2013 ✈ KMEM - KOAK

Flight Track Log - Related Links

Times and Time Zones

All times are in EDT time to prevent confusion due to time zone crossing. See the N612FE flight status page for this flight to view local times or setup timezone preferences in your user account.

Time Position Orientation Groundspeed Altitude Reporting Facility
EDT Latitude Longitude Course Direction KTS MPH feet Rate Location/Type
04:39AM 35.0500 -89.9833 331° Northwest 174 200 1,600  Level KMEM
04:40AM 35.1000 -90.0167 331° Northwest 245 282 4,100 3,660 Climbing KMEM
04:41AM 35.1167 -90.1000 284° West 259 298 8,600 3,120 Climbing KMEM
04:46AM 35.1780 -90.7720 284° West 418 481 24,600 2,820 Climbing FlightAware
04:47AM 35.1940 -90.8600 283° West 433 498 26,200 3,300 Climbing FlightAware
04:47AM 35.2100 -90.9340 285° West 417 480 28,400 2,640 Climbing FlightAware
04:48AM 35.2290 -91.0180 286° West 437 503 29,200 1,920 Climbing FlightAware
04:49AM 35.2470 -91.1010 285° West 436 502 30,700 2,640 Climbing FlightAware
04:49AM 35.2640 -91.1770 285° West 432 497 32,200 2,280 Climbing FlightAware
04:50AM 35.2830 -91.2590 286° West 433 498 33,300 1,860 Climbing FlightAware
04:50AM 35.3030 -91.3500 285° West 434 499 34,500 2,160 Climbing FlightAware
04:51AM 35.3220 -91.4380 285° West 421 484 36,000 1,620 Climbing FlightAware
04:52AM 35.3380 -91.5130 285° West 431 496 36,400 840 Climbing FlightAware
04:52AM 35.3570 -91.5990 285° West 436 502 37,000 1,260 Climbing FlightAware
04:53AM 35.3760 -91.6830 286° West 428 493 37,900 840 Climbing FlightAware
04:53AM 35.3920 -91.7590 285° West 437 503 38,000 60 Climbing FlightAware
04:54AM 35.4110 -91.8480 285° West 441 507 38,000  Level FlightAware
04:55AM 35.4310 -91.9370 285° West 440 506 38,000  Level FlightAware
04:55AM 35.4470 -92.0150 284° West 443 510 38,000  Level FlightAware
04:56AM 35.4650 -92.1000 285° West 444 511 38,000  Level FlightAware
04:56AM 35.4850 -92.1900 285° West 443 510 38,000  Level FlightAware
04:57AM 35.5040 -92.2800 285° West 443 510 38,000  Level FlightAware
04:57AM 35.5190 -92.3530 284° West 445 512 38,000  Level FlightAware
04:58AM 35.5380 -92.4410 285° West 444 511 38,000  Level FlightAware
04:59AM 35.5570 -92.5310 285° West 445 512 38,000  Level FlightAware
04:59AM 35.5760 -92.6220 284° West 447 514 38,000  Level FlightAware
05:00AM 35.5920 -92.6980 285° West 448 516 38,000 60 Level FlightAware
05:00AM 35.6110 -92.7900 284° West 446 513 38,100 60 Climbing FlightAware
05:01AM 35.6290 -92.8780 284° West 446 513 38,100 -120 Level FlightAware
05:02AM 35.6470 -92.9640 284° West 447 514 38,000 -120 Descending FlightAware
05:02AM 35.6630 -93.0430 284° West 448 516 38,000  Level FlightAware
05:03AM 35.6810 -93.1290 284° West 449 517 38,000  Level FlightAware
05:03AM 35.6990 -93.2210 284° West 447 514 38,000  Level FlightAware
05:04AM 35.7160 -93.3000 285° West 447 514 38,000  Level FlightAware
05:04AM 35.7340 -93.3910 284° West 447 514 38,000  Level FlightAware
05:05AM 35.7530 -93.4850 284° West 447 514 38,000  Level FlightAware
05:06AM 35.7680 -93.5620 284° West 446 513 38,000  Level FlightAware
05:06AM 35.7870 -93.6560 284° West 446 513 38,000  Level FlightAware
05:07AM 35.8040 -93.7400 284° West 446 513 38,000  Level FlightAware
05:07AM 35.8200 -93.8210 284° West 446 513 38,000  Level FlightAware
05:08AM 35.8350 -93.9000 283° West 446 513 38,000  Level FlightAware
05:09AM 35.8540 -93.9960 284° West 447 514 38,000  Level FlightAware
05:09AM 35.8720 -94.0880 284° West 448 516 38,000  Level FlightAware
05:10AM 35.8890 -94.1730 284° West 450 518 38,000  Level FlightAware
05:10AM 35.9040 -94.2520 283° West 451 519 38,000  Level FlightAware
05:11AM 35.9150 -94.3080 284° West 451 519 38,000  Level FlightAware
05:12AM 35.9420 -94.4450 284° West 452 520 38,000 60 Level FlightAware
05:12AM 35.9590 -94.5390 283° West 453 521 38,100 60 Climbing FlightAware
05:13AM 35.9760 -94.6240 284° West 453 521 38,100  Level FlightAware
05:13AM 35.9900 -94.7020 283° West 453 521 38,100  Level FlightAware
05:14AM 36.0100 -94.8030 284° West 455 524 38,100  Level FlightAware
05:15AM 36.0270 -94.8970 283° West 453 521 38,100 -120 Level FlightAware
05:15AM 36.0420 -94.9750 283° West 450 518 38,000 -120 Descending FlightAware
05:16AM 36.0590 -95.0670 283° West 449 517 38,000  Level FlightAware
05:16AM 36.0750 -95.1540 283° West 445 512 38,000  Level FlightAware
05:17AM 36.0900 -95.2360 283° West 444 511 38,000  Level FlightAware
05:17AM 36.1070 -95.3250 283° West 442 509 38,000  Level FlightAware
05:18AM 36.1230 -95.4140 283° West 441 507 38,000  Level FlightAware
05:19AM 36.1390 -95.5000 283° West 442 509 38,000  Level FlightAware
05:19AM 36.1520 -95.5770 282° West 443 510 38,000  Level FlightAware
05:20AM 36.1700 -95.6760 283° West 444 511 38,000  Level FlightAware
05:20AM 36.1870 -95.7650 283° West 445 512 38,000  Level FlightAware
05:21AM 36.2000 -95.8370 283° West 445 512 38,000 60 Level FlightAware
05:21AM 36.2170 -95.9310 283° West 444 511 38,100 60 Climbing FlightAware
05:22AM 36.2330 -96.0230 282° West 445 512 38,100  Level FlightAware
05:23AM 36.2490 -96.1150 282° West 444 511 38,100  Level FlightAware
05:23AM 36.2620 -96.1870 283° West 442 509 38,100  Level FlightAware
05:24AM 36.2780 -96.2810 282° West 439 505 38,100 -120 Level FlightAware
05:24AM 36.2940 -96.3720 282° West 436 502 38,000 -120 Descending FlightAware
05:25AM 36.3090 -96.4570 282° West 437 503 38,000  Level FlightAware
05:26AM 36.3230 -96.5380 282° West 437 503 38,000  Level FlightAware
05:26AM 36.3370 -96.6210 282° West 436 502 38,000  Level FlightAware
05:27AM 36.3520 -96.7070 282° West 435 501 38,000  Level FlightAware
05:27AM 36.3680 -96.8020 282° West 435 501 38,000  Level FlightAware
05:28AM 36.3800 -96.8760 281° West 435 501 38,000  Level FlightAware
05:28AM 36.3970 -96.9710 283° West 437 503 38,000  Level FlightAware
05:29AM 36.4110 -97.0540 282° West 437 503 38,000  Level FlightAware
05:30AM 36.4240 -97.1350 281° West 437 503 38,000  Level FlightAware
05:30AM 36.4400 -97.2320 282° West 438 504 38,000  Level FlightAware
05:31AM 36.4520 -97.3060 281° West 439 505 38,000  Level FlightAware
05:31AM 36.4680 -97.3970 282° West 439 505 38,000  Level FlightAware
05:32AM 36.4830 -97.4890 281° West 440 506 38,000  Level FlightAware
05:33AM 36.4960 -97.5700 281° West 441 507 38,000  Level FlightAware
05:33AM 36.5100 -97.6520 282° West 440 506 38,000  Level FlightAware
05:34AM 36.5240 -97.7440 281° West 441 507 38,000  Level FlightAware
05:34AM 36.5390 -97.8360 281° West 442 509 38,000  Level FlightAware
05:35AM 36.5520 -97.9190 281° West 443 510 38,000  Level FlightAware
05:35AM 36.5670 -98.0110 282° West 444 511 38,000  Level FlightAware
05:36AM 36.5800 -98.0910 281° West 443 510 38,000  Level FlightAware
05:37AM 36.5950 -98.1840 281° West 442 509 38,000  Level FlightAware
05:37AM 36.6070 -98.2630 281° West 443 510 38,000  Level FlightAware
05:38AM 36.6210 -98.3560 281° West 442 509 38,000  Level FlightAware
05:38AM 36.6350 -98.4410 282° West 442 509 38,000  Level FlightAware
05:39AM 36.6500 -98.5360 281° West 441 507 38,000  Level FlightAware
05:40AM 36.6630 -98.6200 281° West 440 506 38,000  Level FlightAware
05:40AM 36.6760 -98.7050 281° West 440 506 38,000  Level FlightAware
05:41AM 36.6900 -98.7990 281° West 439 505 38,000  Level FlightAware
05:41AM 36.7010 -98.8710 281° West 438 504 38,000  Level FlightAware
05:42AM 36.7150 -98.9660 280° West 438 504 38,000  Level FlightAware
05:42AM 36.7280 -99.0500 281° West 437 503 38,000  Level FlightAware
05:43AM 36.7420 -99.1410 281° West 437 503 38,000  Level FlightAware
05:44AM 36.7550 -99.2330 280° West 437 503 38,000  Level FlightAware
05:44AM 36.7670 -99.3170 280° West 436 502 38,000  Level FlightAware
05:45AM 36.7790 -99.3940 281° West 436 502 38,000  Level FlightAware
05:45AM 36.7930 -99.4900 280° West 435 501 38,000  Level FlightAware
05:46AM 36.8060 -99.5790 280° West 434 499 38,000  Level FlightAware
05:47AM 36.8180 -99.6600 281° West 433 498 38,000  Level FlightAware
05:47AM 36.8310 -99.7510 280° West 434 499 38,000  Level FlightAware
05:48AM 36.8430 -99.8400 280° West 433 498 38,000  Level FlightAware
05:48AM 36.8540 -99.9140 281° West 433 498 38,000  Level FlightAware
05:49AM 36.8670 -100.0050 280° West 433 498 38,000  Level FlightAware
05:50AM 36.8800 -100.0960 280° West 433 498 38,000  Level FlightAware
05:50AM 36.8920 -100.1820 280° West 433 498 38,000  Level FlightAware
05:51AM 36.9030 -100.2610 280° West 433 498 38,000  Level FlightAware
05:51AM 36.9150 -100.3500 280° West 433 498 38,000  Level FlightAware
05:52AM 36.9280 -100.4430 280° West 433 498 38,000  Level FlightAware
05:52AM 36.9390 -100.5270 279° West 433 498 38,000  Level FlightAware
05:53AM 36.9500 -100.6080 280° West 432 497 38,000  Level FlightAware
05:54AM 36.9630 -100.7000 280° West 433 498 38,000  Level FlightAware
05:54AM 36.9750 -100.7910 279° West 433 498 38,000  Level FlightAware
05:55AM 36.9850 -100.8650 280° West 433 498 38,000  Level FlightAware
05:55AM 36.9970 -100.9570 279° West 434 499 38,000  Level FlightAware
05:56AM 37.0090 -101.0460 280° West 434 499 38,000  Level FlightAware
05:56AM 37.0190 -101.1250 279° West 434 499 38,000  Level FlightAware
05:57AM 37.0310 -101.2090 280° West 435 501 38,000  Level FlightAware
05:58AM 37.0430 -101.3060 279° West 435 501 38,000  Level FlightAware
05:58AM 37.0550 -101.3960 280° West 436 502 38,000  Level FlightAware
05:59AM 37.0640 -101.4710 279° West 436 502 38,000  Level FlightAware
05:59AM 37.0760 -101.5630 279° West 438 504 38,000  Level FlightAware
06:00AM 37.0880 -101.6580 279° West 438 504 38,000  Level FlightAware
06:01AM 37.0980 -101.7380 279° West 439 505 38,000  Level FlightAware
06:01AM 37.1090 -101.8240 279° West 440 506 38,000  Level FlightAware
06:02AM 37.1210 -101.9200 279° West 440 506 38,000  Level FlightAware
06:02AM 37.1320 -102.0050 279° West 440 506 38,000  Level FlightAware
06:03AM 37.1430 -102.0930 279° West 441 507 38,000  Level FlightAware
06:03AM 37.1530 -102.1820 278° West 441 507 38,000  Level FlightAware
06:04AM 37.1650 -102.2750 279° West 441 507 38,000  Level FlightAware
06:05AM 37.1750 -102.3640 278° West 441 507 38,000  Level FlightAware
06:05AM 37.1850 -102.4450 279° West 441 507 38,000  Level FlightAware
06:06AM 37.1960 -102.5360 279° West 441 507 38,000  Level FlightAware
06:06AM 37.2070 -102.6300 278° West 441 507 38,000  Level FlightAware
06:07AM 37.2170 -102.7180 278° West 442 509 38,000  Level FlightAware
06:08AM 37.2270 -102.8020 279° West 442 509 38,000  Level FlightAware
06:08AM 37.2380 -102.8930 279° West 442 509 38,000  Level FlightAware
06:09AM 37.2480 -102.9770 279° West 443 510 38,000  Level FlightAware
06:09AM 37.2580 -103.0710 278° West 443 510 38,000  Level FlightAware
06:10AM 37.2690 -103.1600 279° West 444 511 38,000  Level FlightAware
06:11AM 37.2790 -103.2550 278° West 445 512 38,000  Level FlightAware
06:11AM 37.2820 -103.2800 279° West 445 512 38,000  Level FlightAware
06:12AM 37.2980 -103.4240 278° West 447 514 38,000  Level FlightAware
06:12AM 37.3090 -103.5240 278° West 449 517 38,000  Level FlightAware
06:13AM 37.3180 -103.6010 278° West 449 517 38,000  Level FlightAware
06:13AM 37.3280 -103.6990 277° West 450 518 38,000  Level FlightAware
06:14AM 37.3380 -103.7900 278° West 450 518 38,000  Level FlightAware
06:15AM 37.3480 -103.8830 278° West 450 518 38,000  Level FlightAware
06:15AM 37.3560 -103.9610 277° West 451 519 38,000  Level FlightAware
06:16AM 37.3670 -104.0600 278° West 450 518 38,000  Level FlightAware
06:16AM 37.3760 -104.1510 277° West 450 518 38,000  Level FlightAware
06:17AM 37.3819 -104.2028 278° West 452 520 38,000  Level FlightAware ADS-B (KANK)
06:17AM 37.3896 -104.2756 278° West 453 521 38,000  Level FlightAware ADS-B (KANK)
06:18AM 37.3966 -104.3461 277° West 453 521 38,000  Level FlightAware ADS-B (KANK)
06:18AM 37.4080 -104.4555 277° West 453 521 38,000  Level FlightAware ADS-B (KANK)
06:19AM 37.4182 -104.5573 277° West 454 522 38,000  Level FlightAware ADS-B (KANK)
06:20AM 37.4289 -104.6617 277° West 455 524 38,000  Level FlightAware ADS-B (KANK)
06:20AM 37.4394 -104.7664 277° West 453 521 38,000  Level FlightAware ADS-B (KANK)
06:21AM 37.4498 -104.8735 277° West 452 520 38,000  Level FlightAware ADS-B (KANK)
06:22AM 37.4600 -104.9750 277° West 452 520 38,000  Level FlightAware
06:22AM 37.4680 -105.0586 277° West 452 520 38,000  Level FlightAware ADS-B (KANK)
06:23AM 37.4779 -105.1628 277° West 453 521 38,000  Level FlightAware ADS-B (KANK)
06:23AM 37.4853 -105.2388 277° West 453 521 38,000  Level FlightAware ADS-B (KANK)
06:24AM 37.4932 -105.3225 277° West 453 521 38,000  Level FlightAware ADS-B (KANK)
06:25AM 37.5030 -105.4270 277° West 453 521 38,000  Level FlightAware ADS-B (KANK)
06:25AM 37.5122 -105.5237 277° West 453 521 38,000  Level FlightAware ADS-B (KANK)
06:26AM 37.5211 -105.6208 277° West 453 521 38,000  Level FlightAware ADS-B (KANK)
06:26AM 37.5285 -105.7020 277° West 455 524 38,000  Level FlightAware ADS-B (KMTJ)
06:27AM 37.5368 -105.7940 277° West 455 524 38,000  Level FlightAware ADS-B (KMTJ)
06:27AM 37.5446 -105.8808 276° West 454 522 38,000  Level FlightAware ADS-B (KMTJ)
06:28AM 37.5509 -105.9517 276° West 454 522 38,000  Level FlightAware ADS-B (KMTJ)
06:28AM 37.5585 -106.0355 277° West 454 522 38,000  Level FlightAware ADS-B (KMTJ)
06:29AM 37.5654 -106.1143 276° West 455 524 38,000  Level FlightAware ADS-B (KMTJ)
06:29AM 37.5723 -106.1932 276° West 455 524 38,000  Level FlightAware ADS-B (KMTJ)
06:30AM 37.5791 -106.2722 276° West 456 525 38,000  Level FlightAware ADS-B (KMTJ)
06:30AM 37.5859 -106.3514 276° West 455 524 38,000  Level FlightAware ADS-B (KMTJ)
06:31AM 37.5928 -106.4329 276° West 455 524 38,000  Level FlightAware ADS-B (KMTJ)
06:31AM 37.5992 -106.5090 276° West 454 522 38,000  Level FlightAware ADS-B (KMTJ)
06:32AM 37.6059 -106.5906 276° West 454 522 38,000  Level FlightAware ADS-B (KMTJ)
06:32AM 37.6124 -106.6695 276° West 454 522 38,000  Level FlightAware ADS-B (KMTJ)
06:33AM 37.6191 -106.7485 276° West 455 524 38,000  Level FlightAware ADS-B (KMTJ)
06:33AM 37.6258 -106.8304 276° West 455 524 38,000  Level FlightAware ADS-B (KMTJ)
06:34AM 37.6339 -106.9307 276° West 455 524 38,000  Level FlightAware ADS-B (KANK)
06:35AM 37.6401 -107.0071 276° West 455 524 38,000  Level FlightAware ADS-B (KANK)
06:35AM 37.6468 -107.0915 276° West 455 524 38,000  Level FlightAware ADS-B (KMTJ)
06:36AM 37.6530 -107.1705 276° West 455 524 38,000  Level FlightAware ADS-B (KMTJ)
06:36AM 37.6591 -107.2498 276° West 455 524 38,000  Level FlightAware ADS-B (KMTJ)
06:37AM 37.6652 -107.3291 276° West 456 525 38,000  Level FlightAware ADS-B (KMTJ)
06:37AM 37.6713 -107.4082 276° West 456 525 38,000  Level FlightAware ADS-B (KMTJ)
06:38AM 37.6774 -107.4877 276° West 457 526 38,000  Level FlightAware ADS-B (KMTJ)
06:38AM 37.6834 -107.5674 275° West 457 526 38,000  Level FlightAware ADS-B (KMTJ)
06:39AM 37.6894 -107.6470 275° West 457 526 38,000  Level FlightAware ADS-B (KMTJ)
06:39AM 37.6954 -107.7291 275° West 457 526 38,000  Level FlightAware ADS-B (KMTJ)
06:40AM 37.7012 -107.8088 275° West 458 527 38,000  Level FlightAware ADS-B (KMTJ)
06:40AM 37.7066 -107.8860 275° West 459 528 38,000  Level FlightAware ADS-B (KMTJ)
06:41AM 37.7134 -107.9790 275° West 459 528 38,000  Level FlightAware ADS-B (KMTJ)
06:41AM 37.7192 -108.0589 275° West 459 528 38,000  Level FlightAware ADS-B (KMTJ)
06:42AM 37.7249 -108.1360 275° West 458 527 38,000 60 Level FlightAware ADS-B (KMTJ)
06:42AM 37.7305 -108.2185 275° West 458 527 38,100 60 Climbing FlightAware ADS-B (KMTJ)
06:43AM 37.7360 -108.2984 275° West 458 527 38,100 -120 Level FlightAware ADS-B (KMTJ)
06:43AM 37.7414 -108.3781 275° West 458 527 38,000 -120 Descending FlightAware ADS-B (KMTJ)
06:44AM 37.7466 -108.4554 275° West 458 527 38,000  Level FlightAware ADS-B (KMTJ)
06:44AM 37.7520 -108.5378 275° West 458 527 38,000  Level FlightAware ADS-B (KMTJ)
06:45AM 37.7585 -108.6363 275° West 459 528 38,000  Level FlightAware ADS-B (KMTJ)
06:45AM 37.7639 -108.7164 275° West 459 528 38,000  Level FlightAware ADS-B (KMTJ)
06:46AM 37.7683 -108.7857 275° West 459 528 38,000  Level FlightAware ADS-B (KMTJ)
06:46AM 37.7742 -108.8763 275° West 460 529 38,000  Level FlightAware ADS-B (KMTJ)
06:47AM 37.7795 -108.9592 275° West 459 528 38,000  Level FlightAware ADS-B (KMTJ)
06:47AM 37.7847 -109.0423 275° West 461 531 38,000  Level FlightAware ADS-B (KMTJ)
06:48AM 37.7896 -109.1228 274° West 462 532 38,000  Level FlightAware ADS-B (KMTJ)
06:48AM 37.7946 -109.2035 274° West 463 533 38,000  Level FlightAware ADS-B (KMTJ)
06:49AM 37.7995 -109.2846 274° West 464 534 38,000  Level FlightAware ADS-B (KMTJ)
06:49AM 37.8038 -109.3574 274° West 464 534 38,000  Level FlightAware ADS-B (KMTJ)
06:50AM 37.8099 -109.4605 274° West 465 535 38,000  Level FlightAware ADS-B (KMTJ)
06:50AM 37.8155 -109.5552 274° West 466 536 38,000 60 Level FlightAware ADS-B (KMTJ)
06:51AM 37.8204 -109.6394 274° West 466 536 38,100  Climbing FlightAware ADS-B (KMTJ)
06:51AM 37.8250 -109.7208 274° West 466 536 38,000 -120 Descending FlightAware ADS-B (KMTJ)
06:52AM 37.8295 -109.8023 274° West 467 537 38,000  Level FlightAware ADS-B (KMTJ)
06:52AM 37.8340 -109.8839 274° West 467 537 38,000  Level FlightAware ADS-B (KMTJ)
06:53AM 37.8385 -109.9657 274° West 467 537 38,000  Level FlightAware ADS-B (KMTJ)
06:53AM 37.8429 -110.0474 274° West 467 537 38,000  Level FlightAware ADS-B (KMTJ)
06:54AM 37.8472 -110.1289 274° West 467 537 38,000  Level FlightAware ADS-B (KMTJ)
06:54AM 37.8515 -110.2105 274° West 467 537 38,000  Level FlightAware ADS-B (KMTJ)
06:55AM 37.8569 -110.3113 274° West 468 539 38,000  Level FlightAware ADS-B (KMTJ)
06:56AM 37.8608 -110.3878 274° West 468 539 38,000  Level FlightAware ADS-B (KMTJ)
06:56AM 37.8656 -110.4807 274° West 469 540 38,000  Level FlightAware ADS-B (KMTJ)
06:57AM 37.8765 -110.5863 278° West 469 540 38,000  Level FlightAware ADS-B (KMTJ)
06:57AM 37.8861 -110.6703 278° West 469 540 38,000  Level FlightAware ADS-B (KMTJ)
06:58AM 37.8977 -110.7762 278° West 470 541 38,000  Level FlightAware ADS-B (KMTJ)
06:58AM 37.9072 -110.8604 278° West 470 541 38,000  Level FlightAware ADS-B (KMTJ)
06:59AM 37.9160 -110.9420 278° West 470 541 38,000  Level FlightAware
06:59AM 37.9052 -110.8415 98° East 470 541 38,000  Level FlightAware ADS-B (KMTJ)
07:00AM 37.9312 -111.0731 278° West 472 543 38,000  Level FlightAware ADS-B (KMTJ)
07:00AM 37.9401 -111.1549 278° West 472 543 38,000  Level FlightAware ADS-B (KMTJ)
07:01AM 37.9492 -111.2370 278° West 472 543 38,000  Level FlightAware ADS-B (KMTJ)
07:01AM 37.9574 -111.3137 278° West 471 542 38,000  Level FlightAware ADS-B (KMTJ)
07:02AM 37.9667 -111.4012 278° West 472 543 38,000  Level FlightAware ADS-B (KMTJ)
07:02AM 37.9790 -111.5160 278° West 472 543 38,000  Level FlightAware
07:03AM 37.9806 -111.5297 279° West 472 543 38,000  Level FlightAware ADS-B (KMTJ)
07:03AM 37.9900 -111.6150 278° West 473 544 38,000  Level FlightAware
07:04AM 37.9991 -111.7052 277° West 473 544 38,000  Level FlightAware ADS-B (KMTJ)
07:04AM 38.0090 -111.8010 277° West 473 544 38,000  Level FlightAware
07:05AM 38.0200 -111.9030 278° West 472 543 38,000  Level FlightAware
07:05AM 38.0290 -111.9910 277° West 473 544 38,000  Level FlightAware
07:06AM 38.0347 -112.0490 277° West 474 545 38,000  Level FlightAware ADS-B
07:07AM 38.0490 -112.1890 277° West 473 544 38,000  Level FlightAware
07:07AM 38.0570 -112.2730 277° West 473 544 38,000  Level FlightAware
07:08AM 38.0650 -112.3580 277° West 473 544 38,000  Level FlightAware
07:08AM 38.0730 -112.4440 277° West 473 544 38,000  Level FlightAware
07:09AM 38.0810 -112.5240 277° West 473 544 38,000  Level FlightAware
07:10AM 38.0890 -112.6090 277° West 473 544 38,000  Level FlightAware
07:10AM 38.0970 -112.6930 277° West 473 544 38,000  Level FlightAware
07:11AM 38.1030 -112.7490 278° West 473 544 38,000  Level FlightAware
07:11AM 38.1140 -112.8640 277° West 473 544 38,000  Level FlightAware
07:12AM 38.1329 -113.0505 277° West 477 549 38,000 60 Level FlightAware ADS-B (KPVU)
07:12AM 38.1433 -113.1645 277° West 478 550 38,100  Climbing FlightAware ADS-B (KPVU)
07:13AM 38.1511 -113.2481 277° West 478 550 38,000 -120 Descending FlightAware ADS-B (KPVU)
07:14AM 38.1621 -113.3735 276° West 479 551 38,000  Level FlightAware ADS-B (KPVU)
07:14AM 38.1703 -113.4630 277° West 479 551 38,000  Level FlightAware ADS-B (KPVU)
07:15AM 38.1814 -113.5889 276° West 480 552 38,000 60 Level FlightAware ADS-B (KPVU)
07:16AM 38.1937 -113.7285 276° West 480 552 38,100  Climbing FlightAware ADS-B (KPVU)
07:16AM 38.2012 -113.8152 276° West 480 552 38,000 -120 Descending FlightAware ADS-B (KPVU)
07:17AM 38.2094 -113.9104 276° West 480 552 38,000  Level FlightAware ADS-B (KPVU)
07:17AM 38.2169 -113.9972 276° West 480 552 38,000  Level FlightAware ADS-B (KPVU)
07:18AM 38.2249 -114.0926 276° West 481 554 38,000  Level FlightAware ADS-B (KPVU)
07:19AM 38.2320 -114.1810 276° West 479 551 38,000  Level FlightAware
07:19AM 38.2390 -114.2660 276° West 479 551 38,000  Level FlightAware
07:20AM 38.2460 -114.3550 276° West 479 551 38,000  Level FlightAware
07:21AM 38.2530 -114.4430 276° West 479 551 38,000  Level FlightAware
07:21AM 38.2600 -114.5290 276° West 479 551 38,000  Level FlightAware
07:22AM 38.2680 -114.6150 277° West 479 551 38,000  Level FlightAware
07:22AM 38.2750 -114.7010 276° West 479 551 38,000  Level FlightAware
07:23AM 38.2820 -114.7870 276° West 479 551 38,000  Level FlightAware
07:24AM 38.2890 -114.8750 276° West 479 551 38,000  Level FlightAware
07:24AM 38.2960 -114.9580 276° West 479 551 38,000  Level FlightAware
07:25AM 38.3030 -115.0440 276° West 479 551 38,000  Level FlightAware
07:25AM 38.3100 -115.1300 276° West 479 551 38,000  Level FlightAware
07:26AM 38.3170 -115.2160 276° West 479 551 38,000  Level FlightAware
07:27AM 38.3240 -115.3050 276° West 479 551 38,000  Level FlightAware
07:31AM 38.4100 -116.2940 277° West 38,000  Level FlightAware
07:31AM 38.4030 -116.3580 262° West 480 552 38,000  Level FlightAware
07:32AM 38.3920 -116.4680 263° West 482 555 38,000  Level FlightAware
07:33AM 38.3820 -116.5630 262° West 482 555 38,000  Level FlightAware
07:33AM 38.3690 -116.6790 262° West 483 556 38,000  Level FlightAware
07:34AM 38.3580 -116.7770 262° West 483 556 38,000  Level FlightAware
07:34AM 38.3440 -116.8780 260° West 484 557 38,000  Level FlightAware
07:35AM 38.3330 -116.9680 261° West 485 558 38,000  Level FlightAware
07:36AM 38.3180 -117.0760 260° West 485 558 38,000  Level FlightAware
07:36AM 38.3060 -117.1620 260° West 485 558 38,000 60 Level FlightAware
07:37AM 38.2920 -117.2850 262° West 489 563 38,100 60 Climbing FlightAware
07:38AM 38.2770 -117.3960 260° West 490 564 38,100  Level FlightAware
07:38AM 38.2660 -117.4840 261° West 490 564 38,100  Level FlightAware
07:39AM 38.2530 -117.5780 260° West 489 563 38,100 -120 Level FlightAware
07:39AM 38.2380 -117.6850 260° West 691 795 38,000 -120 Descending FlightAware
07:40AM 38.2230 -117.8020 261° West 490 564 38,000  Level FlightAware
07:40AM 38.2090 -117.9010 260° West 489 563 38,000  Level FlightAware
07:41AM 38.1970 -117.9920 261° West 490 564 38,000  Level FlightAware
07:42AM 38.1840 -118.0850 260° West 489 563 38,000  Level FlightAware
07:43AM 38.1630 -118.2300 260° West 489 563 38,000  Level FlightAware
07:43AM 38.1500 -118.3160 259° West 489 563 38,000  Level FlightAware
07:44AM 38.1360 -118.4020 258° West 489 563 38,000  Level FlightAware
07:44AM 38.1230 -118.4890 259° West 489 563 38,000  Level FlightAware
07:45AM 38.1100 -118.5780 260° West 489 563 38,000  Level FlightAware
07:46AM 38.0900 -118.7530 262° West 487 560 38,000  Level FlightAware
07:46AM 38.0760 -118.8430 259° West 488 562 38,000  Level FlightAware
07:47AM 38.0620 -118.9440 260° West 489 563 38,000  Level FlightAware
07:47AM 38.0470 -119.0430 259° West 489 563 38,000  Level FlightAware
07:48AM 38.0340 -119.1360 260° West 490 564 38,000  Level FlightAware
07:48AM 38.0281 -119.1725 258° West 490 564 38,000  Level FlightAware ADS-B (KAHC)
07:49AM 38.0133 -119.2715 259° West 492 566 38,000  Level FlightAware ADS-B (KAHC)
07:50AM 37.9890 -119.4330 259° West 492 566 38,000 60 Level FlightAware
07:50AM 37.9759 -119.5205 259° West 493 567 38,100 60 Climbing FlightAware ADS-B (KAHC)
07:51AM 37.9579 -119.6391 259° West 491 565 38,100  Level FlightAware ADS-B (KAHC)
07:51AM 37.9450 -119.7240 259° West 488 562 38,100 -720 Level FlightAware
07:52AM 37.9300 -119.8230 259° West 478 550 37,300 -2,460 Descending FlightAware
07:52AM 37.9140 -119.9250 259° West 485 558 35,100 -3,420 Descending FlightAware
07:53AM 37.8980 -120.0290 259° West 484 557 33,200 -3,240 Descending FlightAware
07:54AM 37.8820 -120.1260 258° West 482 555 31,300 -2,940 Descending FlightAware
07:54AM 37.8680 -120.2130 259° West 473 544 29,900 -2,460 Descending FlightAware
07:55AM 37.8540 -120.3040 259° West 460 529 28,600 -2,460 Descending FlightAware
07:55AM 37.8390 -120.4010 259° West 449 517 27,000 -2,460 Descending FlightAware
07:56AM 37.8240 -120.4950 259° West 439 505 25,600 -2,400 Descending FlightAware
07:57AM 37.8110 -120.5750 258° West 432 497 24,300 -2,340 Descending FlightAware
07:57AM 37.7970 -120.6610 258° West 423 487 23,000 -2,340 Descending FlightAware
07:58AM 37.7840 -120.7450 259° West 414 476 21,600 -2,400 Descending FlightAware
07:58AM 37.7710 -120.8220 258° West 406 467 20,300 -2,340 Descending FlightAware
07:59AM 37.7570 -120.9110 259° West 391 450 18,800 -2,340 Descending FlightAware
07:59AM 37.7440 -120.9860 258° West 382 440 17,500 -2,220 Descending FlightAware
08:00AM 37.7310 -121.0680 259° West 373 429 16,200 -2,160 Descending FlightAware
08:01AM 37.7210 -121.1270 258° West 368 423 15,100 -2,280 Descending FlightAware
08:01AM 37.7090 -121.2010 258° West 364 419 13,800 -2,280 Descending FlightAware
08:02AM 37.6970 -121.2750 258° West 358 412 12,500 -1,980 Descending FlightAware
08:02AM 37.6810 -121.3660 258° West 342 394 11,200 -1,380 Descending FlightAware
08:03AM 37.6700 -121.4330 258° West 312 359 10,700 -900 Descending FlightAware
08:04AM 37.6590 -121.4900 256° West 283 326 10,200 -1,080 Descending FlightAware
08:04AM 37.6540 -121.5270 260° West 279 321 9,700 -1,260 Descending FlightAware
08:04AM 37.6490 -121.5590 259° West 278 320 9,300 -1,200 Descending FlightAware
08:05AM 37.6424 -121.5920 256° West 277 319 8,900 -1,380 Descending FlightAware ADS-B
08:05AM 37.6367 -121.6170 254° West 277 319 8,500 -1,500 Descending FlightAware ADS-B
08:05AM 37.6305 -121.6430 253° West 274 315 8,100 -1,140 Descending FlightAware ADS-B
08:06AM 37.6244 -121.6670 252° West 273 314 7,900 -960 Descending FlightAware ADS-B
08:06AM 37.6207 -121.6820 253° West 270 311 7,700 -1,200 Descending FlightAware ADS-B
08:06AM 37.6147 -121.7060 252° West 265 305 7,400 -1,020 Descending FlightAware ADS-B
08:06AM 37.6094 -121.7270 252° West 260 299 7,200 -1,080 Descending FlightAware ADS-B
08:06AM 37.6037 -121.7480 251° West 256 295 6,900 -1,200 Descending FlightAware ADS-B
08:07AM 37.5981 -121.7700 252° West 252 290 6,600 -1,200 Descending FlightAware ADS-B
08:07AM 37.5928 -121.7910 252° West 249 287 6,300 -1,200 Descending FlightAware ADS-B
08:07AM 37.5877 -121.8140 254° West 247 284 6,000 -1,200 Descending FlightAware ADS-B
08:08AM 37.5814 -121.8400 253° West 244 281 5,600 -1,200 Descending FlightAware ADS-B
08:08AM 37.5763 -121.8610 253° West 241 277 5,300 -1,200 Descending FlightAware ADS-B
08:08AM 37.5714 -121.8810 253° West 238 274 5,000 -1,260 Descending FlightAware ADS-B
08:08AM 37.5668 -121.9000 253° West 230 265 4,700 -1,500 Descending FlightAware ADS-B
08:08AM 37.5635 -121.9120 251° West 224 258 4,400 -1,320 Descending FlightAware ADS-B
08:09AM 37.5623 -121.9170 253° West 223 257 4,400 -720 Level FlightAware ADS-B
08:09AM 37.5616 -121.9230 262° West 222 255 4,300 -1,380 Descending FlightAware ADS-B
08:09AM 37.5616 -121.9290 270° West 222 255 4,200 -1,500 Descending FlightAware ADS-B
08:09AM 37.5622 -121.9340 279° West 222 255 4,100 -1,200 Descending FlightAware ADS-B
08:09AM 37.5639 -121.9410 287° West 222 255 4,000 -960 Descending FlightAware ADS-B
08:09AM 37.5663 -121.9500 289° West 220 253 3,900 -1,020 Descending FlightAware ADS-B
08:09AM 37.5679 -121.9560 289° West 218 251 3,800 -900 Descending FlightAware ADS-B
08:09AM 37.5719 -121.9740 286° West 218 251 3,600 -960 Descending FlightAware ADS-B
08:10AM 37.5770 -121.9950 287° West 219 252 3,300 -960 Descending FlightAware ADS-B
08:10AM 37.5818 -122.0140 288° West 214 246 3,100 -840 Descending FlightAware ADS-B
08:10AM 37.5856 -122.0300 287° West 204 235 2,900 -480 Descending FlightAware ADS-B
08:10AM 37.5892 -122.0440 288° West 192 221 2,900  Level FlightAware ADS-B
08:10AM 37.5921 -122.0490 306° West 187 215 2,900  Level FlightAware ADS-B
08:11AM 37.5959 -122.0550 309° West 184 212 2,900  Level FlightAware ADS-B
08:11AM 37.6009 -122.0640 305° West 184 212 2,900 -300 Level FlightAware ADS-B
08:11AM 37.6074 -122.0740 309° West 182 209 2,800 -900 Descending FlightAware ADS-B
08:11AM 37.6163 -122.0870 311° West 184 212 2,500 -1,200 Descending FlightAware ADS-B
08:11AM 37.6245 -122.0990 311° West 182 209 2,200 -960 Descending FlightAware ADS-B
08:12AM 37.6341 -122.1130 311° West 177 204 2,000 -960 Descending FlightAware ADS-B
08:12AM 37.6421 -122.1250 310° West 169 194 1,700 -1,020 Descending FlightAware ADS-B
08:12AM 37.6494 -122.1360 310° West 155 178 1,500 -720 Descending FlightAware ADS-B
08:12AM 37.6542 -122.1430 311° West 151 174 1,400 -720 Descending FlightAware ADS-B
08:13AM 37.6615 -122.1540 310° West 152 175 1,200 -840 Descending FlightAware ADS-B
08:13AM 37.6678 -122.1640 309° West 148 170 1,000 -840 Descending FlightAware ADS-B
08:13AM 37.6747 -122.1740 311° West 142 163 800 -720 Descending FlightAware ADS-B
08:13AM 37.6791 -122.1810 308° West 138 159 700 -720 Descending FlightAware ADS-B
08:14AM 37.6861 -122.1910 311° West 141 162 500 -780 Descending FlightAware ADS-B
08:14AM 37.6929 -122.2010 311° West 142 163 300 -780 Descending FlightAware ADS-B
08:14AM 37.7060 -122.2210 310° West 135 155 -600 Descending FlightAware ADS-B